sensor_id;sensor_type;location;lat;lon;timestamp;pressure;altitude;pressure_sealevel;temperature;humidity
20987;BME280;10652;50.306;8.570;2023-08-06T00:01:56;97070.16;;;14.90;100.00
20987;BME280;10652;50.306;8.570;2023-08-06T00:05:58;97074.75;;;14.88;100.00
20987;BME280;10652;50.306;8.570;2023-08-06T00:10:00;97077.16;;;14.80;100.00
20987;BME280;10652;50.306;8.570;2023-08-06T00:14:03;97064.16;;;14.77;100.00
20987;BME280;10652;50.306;8.570;2023-08-06T00:18:05;97072.47;;;14.73;100.00
20987;BME280;10652;50.306;8.570;2023-08-06T00:22:07;97068.38;;;14.69;100.00
20987;BME280;10652;50.306;8.570;2023-08-06T00:26:09;97062.25;;;14.68;100.00
20987;BME280;10652;50.306;8.570;2023-08-06T00:30:11;97056.13;;;14.68;100.00
20987;BME280;10652;50.306;8.570;2023-08-06T00:34:13;97048.19;;;14.68;100.00
20987;BME280;10652;50.306;8.570;2023-08-06T00:38:16;97043.53;;;14.71;100.00
20987;BME280;10652;50.306;8.570;2023-08-06T00:42:19;97035.13;;;14.66;100.00
20987;BME280;10652;50.306;8.570;2023-08-06T00:46:23;97028.25;;;14.64;100.00
20987;BME280;10652;50.306;8.570;2023-08-06T00:50:27;97024.66;;;14.65;100.00
20987;BME280;10652;50.306;8.570;2023-08-06T00:54:30;97018.53;;;14.64;100.00
20987;BME280;10652;50.306;8.570;2023-08-06T00:58:34;97021.91;;;14.66;100.00
20987;BME280;10652;50.306;8.570;2023-08-06T01:02:37;97010.50;;;14.66;100.00
20987;BME280;10652;50.306;8.570;2023-08-06T01:06:46;97007.13;;;14.64;100.00
20987;BME280;10652;50.306;8.570;2023-08-06T01:15:15;97001.25;;;14.60;100.00
20987;BME280;10652;50.306;8.570;2023-08-06T01:19:21;97001.25;;;14.60;100.00
20987;BME280;10652;50.306;8.570;2023-08-06T01:23:24;97002.34;;;14.58;100.00
20987;BME280;10652;50.306;8.570;2023-08-06T01:27:32;96998.09;;;14.55;100.00
20987;BME280;10652;50.306;8.570;2023-08-06T01:31:37;96993.41;;;14.48;100.00
20987;BME280;10652;50.306;8.570;2023-08-06T01:35:40;96993.91;;;14.41;100.00
20987;BME280;10652;50.306;8.570;2023-08-06T01:39:43;96987.91;;;14.39;100.00
20987;BME280;10652;50.306;8.570;2023-08-06T01:43:45;96987.91;;;14.39;100.00
20987;BME280;10652;50.306;8.570;2023-08-06T01:47:47;96971.81;;;14.42;100.00
20987;BME280;10652;50.306;8.570;2023-08-06T01:51:49;96968.22;;;14.43;100.00
20987;BME280;10652;50.306;8.570;2023-08-06T01:55:52;96974.34;;;14.44;100.00
20987;BME280;10652;50.306;8.570;2023-08-06T01:59:54;96958.47;;;14.44;100.00
20987;BME280;10652;50.306;8.570;2023-08-06T02:03:56;96957.50;;;14.45;100.00
20987;BME280;10652;50.306;8.570;2023-08-06T02:07:59;96954.00;;;14.44;100.00
20987;BME280;10652;50.306;8.570;2023-08-06T02:12:01;96956.53;;;14.46;100.00
20987;BME280;10652;50.306;8.570;2023-08-06T02:16:07;96951.13;;;14.48;100.00
20987;BME280;10652;50.306;8.570;2023-08-06T02:20:10;96933.72;;;14.45;100.00
20987;BME280;10652;50.306;8.570;2023-08-06T02:24:13;96936.25;;;14.46;100.00
20987;BME280;10652;50.306;8.570;2023-08-06T02:28:15;96923.88;;;14.47;100.00
20987;BME280;10652;50.306;8.570;2023-08-06T02:32:17;96923.13;;;14.45;100.00
20987;BME280;10652;50.306;8.570;2023-08-06T02:36:19;96917.63;;;14.48;100.00
20987;BME280;10652;50.306;8.570;2023-08-06T02:40:21;96916.53;;;14.51;100.00
20987;BME280;10652;50.306;8.570;2023-08-06T02:44:27;96922.19;;;14.57;100.00
20987;BME280;10652;50.306;8.570;2023-08-06T02:48:29;96916.03;;;14.57;100.00
20987;BME280;10652;50.306;8.570;2023-08-06T02:52:31;96911.59;;;14.57;100.00
20987;BME280;10652;50.306;8.570;2023-08-06T02:56:34;96904.75;;;14.55;100.00
20987;BME280;10652;50.306;8.570;2023-08-06T03:00:47;96888.31;;;14.51;100.00
20987;BME280;10652;50.306;8.570;2023-08-06T03:04:50;96883.97;;;14.50;100.00
20987;BME280;10652;50.306;8.570;2023-08-06T03:08:56;96890.72;;;14.43;100.00
20987;BME280;10652;50.306;8.570;2023-08-06T03:12:58;96884.03;;;14.39;100.00
20987;BME280;10652;50.306;8.570;2023-08-06T03:17:01;96884.03;;;14.39;100.00
20987;BME280;10652;50.306;8.570;2023-08-06T03:21:04;96875.38;;;14.37;100.00
20987;BME280;10652;50.306;8.570;2023-08-06T03:25:06;96869.38;;;14.35;100.00
20987;BME280;10652;50.306;8.570;2023-08-06T03:29:12;96864.31;;;14.32;100.00
20987;BME280;10652;50.306;8.570;2023-08-06T03:33:15;96857.88;;;14.25;100.00
20987;BME280;10652;50.306;8.570;2023-08-06T03:37:19;96861.47;;;14.24;100.00
20987;BME280;10652;50.306;8.570;2023-08-06T03:45:27;96858.94;;;14.22;100.00
20987;BME280;10652;50.306;8.570;2023-08-06T03:49:30;96866.03;;;14.22;100.00
20987;BME280;10652;50.306;8.570;2023-08-06T03:53:32;96855.72;;;14.19;100.00
20987;BME280;10652;50.306;8.570;2023-08-06T03:57:36;96853.06;;;14.19;100.00
20987;BME280;10652;50.306;8.570;2023-08-06T04:01:38;96846.84;;;14.20;100.00
20987;BME280;10652;50.306;8.570;2023-08-06T04:05:40;96851.38;;;14.18;100.00
20987;BME280;10652;50.306;8.570;2023-08-06T04:10:00;96849.47;;;14.20;100.00
20987;BME280;10652;50.306;8.570;2023-08-06T04:14:02;96840.59;;;14.21;100.00
20987;BME280;10652;50.306;8.570;2023-08-06T04:18:05;96838.44;;;14.26;100.00
20987;BME280;10652;50.306;8.570;2023-08-06T04:22:07;96838.44;;;14.26;100.00
20987;BME280;10652;50.306;8.570;2023-08-06T04:26:09;96838.44;;;14.26;100.00
20987;BME280;10652;50.306;8.570;2023-08-06T04:30:12;96831.47;;;14.25;100.00
20987;BME280;10652;50.306;8.570;2023-08-06T04:34:16;96832.41;;;14.24;100.00
20987;BME280;10652;50.306;8.570;2023-08-06T04:38:18;96831.56;;;14.23;100.00
20987;BME280;10652;50.306;8.570;2023-08-06T04:42:20;96831.47;;;14.25;100.00
20987;BME280;10652;50.306;8.570;2023-08-06T04:46:22;96825.16;;;14.37;100.00
20987;BME280;10652;50.306;8.570;2023-08-06T04:50:25;96823.94;;;14.52;100.00
20987;BME280;10652;50.306;8.570;2023-08-06T04:54:27;96822.06;;;14.75;100.00
20987;BME280;10652;50.306;8.570;2023-08-06T04:58:29;96819.59;;;15.04;100.00
20987;BME280;10652;50.306;8.570;2023-08-06T05:02:31;96819.81;;;15.42;100.00
20987;BME280;10652;50.306;8.570;2023-08-06T05:06:37;96811.75;;;16.23;100.00
20987;BME280;10652;50.306;8.570;2023-08-06T05:10:44;96816.75;;;16.17;100.00
20987;BME280;10652;50.306;8.570;2023-08-06T05:14:46;96829.44;;;16.13;100.00
20987;BME280;10652;50.306;8.570;2023-08-06T05:18:48;96825.13;;;16.12;100.00
20987;BME280;10652;50.306;8.570;2023-08-06T05:22:50;96824.44;;;15.70;100.00
20987;BME280;10652;50.306;8.570;2023-08-06T05:26:53;96832.88;;;15.34;100.00
20987;BME280;10652;50.306;8.570;2023-08-06T05:30:55;96834.94;;;15.10;100.00
20987;BME280;10652;50.306;8.570;2023-08-06T05:34:57;96830.81;;;14.96;100.00
20987;BME280;10652;50.306;8.570;2023-08-06T05:38:59;96840.81;;;14.93;100.00
20987;BME280;10652;50.306;8.570;2023-08-06T05:43:01;96841.53;;;14.95;100.00
20987;BME280;10652;50.306;8.570;2023-08-06T05:47:03;96836.00;;;14.98;100.00
20987;BME280;10652;50.306;8.570;2023-08-06T05:51:06;96845.34;;;15.02;100.00
20987;BME280;10652;50.306;8.570;2023-08-06T05:55:08;96845.81;;;15.07;100.00
20987;BME280;10652;50.306;8.570;2023-08-06T05:59:10;96849.75;;;15.12;100.00
20987;BME280;10652;50.306;8.570;2023-08-06T06:03:12;96839.84;;;15.35;100.00
20987;BME280;10652;50.306;8.570;2023-08-06T06:07:14;96830.66;;;15.60;100.00
20987;BME280;10652;50.306;8.570;2023-08-06T06:11:16;96836.78;;;15.60;100.00
20987;BME280;10652;50.306;8.570;2023-08-06T06:15:21;96839.94;;;15.54;100.00
20987;BME280;10652;50.306;8.570;2023-08-06T06:19:23;96836.59;;;15.52;100.00
20987;BME280;10652;50.306;8.570;2023-08-06T06:23:26;96843.81;;;15.50;100.00
20987;BME280;10652;50.306;8.570;2023-08-06T06:27:28;96844.34;;;15.44;100.00
20987;BME280;10652;50.306;8.570;2023-08-06T06:31:30;96837.38;;;15.43;100.00
20987;BME280;10652;50.306;8.570;2023-08-06T06:35:33;96838.28;;;15.53;100.00
20987;BME280;10652;50.306;8.570;2023-08-06T06:39:35;96832.53;;;15.78;100.00
20987;BME280;10652;50.306;8.570;2023-08-06T06:43:37;96830.94;;;15.97;100.00
20987;BME280;10652;50.306;8.570;2023-08-06T06:47:41;96825.09;;;16.03;100.00
20987;BME280;10652;50.306;8.570;2023-08-06T06:51:43;96832.34;;;16.01;100.00
20987;BME280;10652;50.306;8.570;2023-08-06T06:55:46;96828.16;;;15.98;100.00
20987;BME280;10652;50.306;8.570;2023-08-06T06:59:50;96830.28;;;16.14;100.00
20987;BME280;10652;50.306;8.570;2023-08-06T07:03:53;96836.28;;;16.16;100.00
20987;BME280;10652;50.306;8.570;2023-08-06T07:07:55;96841.25;;;16.00;100.00
20987;BME280;10652;50.306;8.570;2023-08-06T07:11:57;96833.16;;;15.92;100.00
20987;BME280;10652;50.306;8.570;2023-08-06T07:15:59;96828.66;;;15.83;100.00
20987;BME280;10652;50.306;8.570;2023-08-06T07:20:01;96845.06;;;15.76;100.00
20987;BME280;10652;50.306;8.570;2023-08-06T07:24:04;96840.31;;;15.70;100.00
20987;BME280;10652;50.306;8.570;2023-08-06T07:28:06;96829.47;;;15.73;100.00
20987;BME280;10652;50.306;8.570;2023-08-06T07:32:08;96838.66;;;15.69;100.00
20987;BME280;10652;50.306;8.570;2023-08-06T07:36:11;96833.69;;;15.86;100.00
20987;BME280;10652;50.306;8.570;2023-08-06T07:40:14;96837.09;;;16.07;100.00
20987;BME280;10652;50.306;8.570;2023-08-06T07:44:16;96844.66;;;16.11;100.00
20987;BME280;10652;50.306;8.570;2023-08-06T07:48:18;96832.94;;;16.14;100.00
20987;BME280;10652;50.306;8.570;2023-08-06T07:52:20;96835.19;;;16.28;100.00
20987;BME280;10652;50.306;8.570;2023-08-06T07:56:23;96831.59;;;16.39;100.00
20987;BME280;10652;50.306;8.570;2023-08-06T08:00:25;96827.44;;;16.55;100.00
20987;BME280;10652;50.306;8.570;2023-08-06T08:04:28;96832.19;;;16.61;100.00
20987;BME280;10652;50.306;8.570;2023-08-06T08:08:30;96845.47;;;16.71;100.00
20987;BME280;10652;50.306;8.570;2023-08-06T08:12:32;96833.59;;;16.75;98.60
20987;BME280;10652;50.306;8.570;2023-08-06T08:16:34;96833.31;;;16.69;96.68
20987;BME280;10652;50.306;8.570;2023-08-06T08:20:37;96837.34;;;16.73;94.68
20987;BME280;10652;50.306;8.570;2023-08-06T08:24:39;96835.25;;;16.76;94.43
20987;BME280;10652;50.306;8.570;2023-08-06T08:28:41;96836.25;;;16.85;94.06
20987;BME280;10652;50.306;8.570;2023-08-06T08:32:43;96838.00;;;17.13;94.67
20987;BME280;10652;50.306;8.570;2023-08-06T08:36:46;96831.81;;;17.51;91.42
20987;BME280;10652;50.306;8.570;2023-08-06T08:40:51;96833.91;;;17.94;87.88
20987;BME280;10652;50.306;8.570;2023-08-06T08:44:55;96834.16;;;18.46;85.65
20987;BME280;10652;50.306;8.570;2023-08-06T08:48:59;96829.47;;;18.93;82.33
20987;BME280;10652;50.306;8.570;2023-08-06T08:53:02;96827.94;;;19.25;75.50
20987;BME280;10652;50.306;8.570;2023-08-06T08:57:04;96826.38;;;19.49;76.63
20987;BME280;10652;50.306;8.570;2023-08-06T09:01:08;96834.16;;;19.68;72.25
20987;BME280;10652;50.306;8.570;2023-08-06T09:05:11;96824.78;;;19.56;71.34
20987;BME280;10652;50.306;8.570;2023-08-06T09:09:34;96818.28;;;19.84;74.52
20987;BME280;10652;50.306;8.570;2023-08-06T09:13:38;96818.13;;;20.20;70.28
20987;BME280;10652;50.306;8.570;2023-08-06T09:17:41;96824.59;;;20.17;68.77
20987;BME280;10652;50.306;8.570;2023-08-06T09:21:43;96812.06;;;19.76;66.43
20987;BME280;10652;50.306;8.570;2023-08-06T09:25:45;96824.66;;;19.40;69.97
20987;BME280;10652;50.306;8.570;2023-08-06T09:29:47;96811.13;;;19.25;71.22
20987;BME280;10652;50.306;8.570;2023-08-06T09:33:50;96809.94;;;19.27;71.06
20987;BME280;10652;50.306;8.570;2023-08-06T09:37:52;96813.06;;;19.49;68.51
20987;BME280;10652;50.306;8.570;2023-08-06T09:41:59;96817.88;;;19.71;69.44
20987;BME280;10652;50.306;8.570;2023-08-06T09:46:01;96816.50;;;19.93;66.72
20987;BME280;10652;50.306;8.570;2023-08-06T09:50:04;96822.75;;;20.09;66.00
20987;BME280;10652;50.306;8.570;2023-08-06T09:54:09;96827.75;;;20.12;56.74
20987;BME280;10652;50.306;8.570;2023-08-06T09:58:31;96829.59;;;19.86;58.75
20987;BME280;10652;50.306;8.570;2023-08-06T10:02:35;96826.09;;;19.52;61.99
20987;BME280;10652;50.306;8.570;2023-08-06T10:06:39;96814.84;;;19.40;63.09
20987;BME280;10652;50.306;8.570;2023-08-06T10:10:41;96816.94;;;19.28;62.52
20987;BME280;10652;50.306;8.570;2023-08-06T10:14:44;96819.44;;;19.12;64.05
20987;BME280;10652;50.306;8.570;2023-08-06T10:18:48;96816.22;;;19.01;64.56
20987;BME280;10652;50.306;8.570;2023-08-06T10:23:05;96807.16;;;19.11;67.21
20987;BME280;10652;50.306;8.570;2023-08-06T10:27:07;96795.66;;;19.62;66.91
20987;BME280;10652;50.306;8.570;2023-08-06T10:31:10;96798.75;;;20.17;63.79
20987;BME280;10652;50.306;8.570;2023-08-06T10:39:29;96800.91;;;20.72;57.65
20987;BME280;10652;50.306;8.570;2023-08-06T10:43:35;96803.56;;;20.72;60.13
20987;BME280;10652;50.306;8.570;2023-08-06T10:47:38;96805.94;;;20.75;59.58
20987;BME280;10652;50.306;8.570;2023-08-06T10:51:45;96806.41;;;20.71;60.47
20987;BME280;10652;50.306;8.570;2023-08-06T10:55:47;96806.56;;;20.77;60.17
20987;BME280;10652;50.306;8.570;2023-08-06T10:59:49;96803.19;;;20.59;61.23
20987;BME280;10652;50.306;8.570;2023-08-06T11:04:08;96797.91;;;20.75;61.29
20987;BME280;10652;50.306;8.570;2023-08-06T11:08:10;96798.25;;;21.21;61.02
20987;BME280;10652;50.306;8.570;2023-08-06T11:12:18;96798.53;;;21.42;59.59
20987;BME280;10652;50.306;8.570;2023-08-06T11:16:24;96806.22;;;21.45;56.58
20987;BME280;10652;50.306;8.570;2023-08-06T11:20:27;96812.56;;;21.36;57.20
20987;BME280;10652;50.306;8.570;2023-08-06T11:24:29;96806.41;;;21.52;57.91
20987;BME280;10652;50.306;8.570;2023-08-06T11:28:31;96799.94;;;21.85;57.59
20987;BME280;10652;50.306;8.570;2023-08-06T11:32:44;96801.50;;;21.63;57.03
20987;BME280;10652;50.306;8.570;2023-08-06T11:36:47;96797.56;;;21.27;58.00
20987;BME280;10652;50.306;8.570;2023-08-06T11:40:50;96824.72;;;20.57;56.20
20987;BME280;10652;50.306;8.570;2023-08-06T11:44:56;96871.06;;;19.29;65.84
20987;BME280;10652;50.306;8.570;2023-08-06T11:48:58;96864.00;;;18.67;70.52
20987;BME280;10652;50.306;8.570;2023-08-06T11:53:01;96873.63;;;18.13;76.04
20987;BME280;10652;50.306;8.570;2023-08-06T11:57:05;96879.59;;;17.61;79.56
20987;BME280;10652;50.306;8.570;2023-08-06T12:01:07;96886.06;;;17.29;81.53
20987;BME280;10652;50.306;8.570;2023-08-06T12:05:17;96890.97;;;17.05;82.67
20987;BME280;10652;50.306;8.570;2023-08-06T12:09:19;96910.22;;;16.88;83.48
20987;BME280;10652;50.306;8.570;2023-08-06T12:13:22;96915.06;;;16.54;85.96
20987;BME280;10652;50.306;8.570;2023-08-06T12:17:25;96919.13;;;16.18;85.52
20987;BME280;10652;50.306;8.570;2023-08-06T12:21:27;96925.50;;;16.06;86.15
20987;BME280;10652;50.306;8.570;2023-08-06T12:25:30;96928.53;;;15.71;88.12
20987;BME280;10652;50.306;8.570;2023-08-06T12:29:32;96951.47;;;15.61;88.57
20987;BME280;10652;50.306;8.570;2023-08-06T12:33:34;96934.00;;;15.38;89.04
20987;BME280;10652;50.306;8.570;2023-08-06T12:37:37;96950.84;;;15.16;92.24
20987;BME280;10652;50.306;8.570;2023-08-06T12:41:42;96961.75;;;14.90;92.76
20987;BME280;10652;50.306;8.570;2023-08-06T12:45:45;96949.66;;;14.77;94.54
20987;BME280;10652;50.306;8.570;2023-08-06T12:49:49;96963.50;;;14.58;93.98
20987;BME280;10652;50.306;8.570;2023-08-06T12:53:51;96974.81;;;14.60;94.64
20987;BME280;10652;50.306;8.570;2023-08-06T12:57:53;96960.13;;;14.67;95.43
20987;BME280;10652;50.306;8.570;2023-08-06T13:02:00;96969.72;;;14.79;94.92
20987;BME280;10652;50.306;8.570;2023-08-06T13:06:02;96979.56;;;14.88;91.96
20987;BME280;10652;50.306;8.570;2023-08-06T13:10:05;96996.38;;;14.76;93.84
20987;BME280;10652;50.306;8.570;2023-08-06T13:14:09;96999.56;;;14.59;95.57
20987;BME280;10652;50.306;8.570;2023-08-06T13:18:12;97008.19;;;14.50;97.57
20987;BME280;10652;50.306;8.570;2023-08-06T13:22:14;97012.75;;;14.48;98.39
20987;BME280;10652;50.306;8.570;2023-08-06T13:26:17;97016.09;;;14.50;99.11
20987;BME280;10652;50.306;8.570;2023-08-06T13:30:19;97024.50;;;14.55;98.93
20987;BME280;10652;50.306;8.570;2023-08-06T13:34:22;97024.06;;;14.61;97.62
20987;BME280;10652;50.306;8.570;2023-08-06T13:38:24;97023.69;;;14.43;97.28
20987;BME280;10652;50.306;8.570;2023-08-06T13:42:26;97038.69;;;14.32;98.52
20987;BME280;10652;50.306;8.570;2023-08-06T13:46:28;97024.41;;;14.34;99.21
20987;BME280;10652;50.306;8.570;2023-08-06T13:50:30;97037.59;;;14.45;98.88
20987;BME280;10652;50.306;8.570;2023-08-06T13:54:32;97048.06;;;14.36;98.86
20987;BME280;10652;50.306;8.570;2023-08-06T13:58:34;97046.00;;;14.17;97.65
20987;BME280;10652;50.306;8.570;2023-08-06T14:02:37;97032.94;;;14.16;99.57
20987;BME280;10652;50.306;8.570;2023-08-06T14:06:39;97050.09;;;14.10;98.26
20987;BME280;10652;50.306;8.570;2023-08-06T14:10:41;97040.72;;;14.06;99.72
20987;BME280;10652;50.306;8.570;2023-08-06T14:14:43;97051.19;;;14.30;98.59
20987;BME280;10652;50.306;8.570;2023-08-06T14:18:45;97043.53;;;14.60;97.55
20987;BME280;10652;50.306;8.570;2023-08-06T14:22:47;97041.81;;;14.81;95.17
20987;BME280;10652;50.306;8.570;2023-08-06T14:26:49;97052.16;;;14.84;94.97
20987;BME280;10652;50.306;8.570;2023-08-06T14:30:52;97052.84;;;14.98;95.51
20987;BME280;10652;50.306;8.570;2023-08-06T14:34:55;97054.38;;;15.11;93.06
20987;BME280;10652;50.306;8.570;2023-08-06T14:38:57;97052.53;;;15.23;91.87
20987;BME280;10652;50.306;8.570;2023-08-06T14:43:01;97065.75;;;15.34;91.42
20987;BME280;10652;50.306;8.570;2023-08-06T14:47:04;97057.91;;;15.32;90.93
20987;BME280;10652;50.306;8.570;2023-08-06T14:51:06;97074.22;;;15.17;93.70
20987;BME280;10652;50.306;8.570;2023-08-06T14:55:08;97093.56;;;15.17;94.86
20987;BME280;10652;50.306;8.570;2023-08-06T14:59:11;97103.06;;;15.09;96.42
20987;BME280;10652;50.306;8.570;2023-08-06T15:03:13;97107.91;;;14.93;97.87
20987;BME280;10652;50.306;8.570;2023-08-06T15:07:15;97112.13;;;14.84;98.33
20987;BME280;10652;50.306;8.570;2023-08-06T15:11:17;97120.19;;;14.71;97.46
20987;BME280;10652;50.306;8.570;2023-08-06T15:15:19;97125.22;;;14.74;94.31
20987;BME280;10652;50.306;8.570;2023-08-06T15:19:21;97132.44;;;14.72;93.62
20987;BME280;10652;50.306;8.570;2023-08-06T15:23:24;97137.72;;;14.83;95.38
20987;BME280;10652;50.306;8.570;2023-08-06T15:27:26;97140.84;;;14.88;92.65
20987;BME280;10652;50.306;8.570;2023-08-06T15:31:36;97136.03;;;15.16;93.95
20987;BME280;10652;50.306;8.570;2023-08-06T15:35:39;97144.53;;;15.30;89.00
20987;BME280;10652;50.306;8.570;2023-08-06T15:39:41;97151.84;;;15.38;89.32
20987;BME280;10652;50.306;8.570;2023-08-06T15:43:43;97154.97;;;15.43;88.46
20987;BME280;10652;50.306;8.570;2023-08-06T15:47:45;97146.19;;;15.31;86.29
20987;BME280;10652;50.306;8.570;2023-08-06T15:51:48;97153.59;;;15.17;87.31
20987;BME280;10652;50.306;8.570;2023-08-06T15:55:50;97164.50;;;14.90;87.83
20987;BME280;10652;50.306;8.570;2023-08-06T15:59:52;97167.03;;;14.69;89.56
20987;BME280;10652;50.306;8.570;2023-08-06T16:03:54;97175.28;;;14.54;91.74
20987;BME280;10652;50.306;8.570;2023-08-06T16:07:56;97171.28;;;14.37;95.32
20987;BME280;10652;50.306;8.570;2023-08-06T16:11:58;97179.66;;;14.31;96.39
20987;BME280;10652;50.306;8.570;2023-08-06T16:16:01;97177.25;;;14.17;97.12
20987;BME280;10652;50.306;8.570;2023-08-06T16:20:03;97186.69;;;14.08;97.65
20987;BME280;10652;50.306;8.570;2023-08-06T16:24:06;97190.16;;;14.09;97.74
20987;BME280;10652;50.306;8.570;2023-08-06T16:28:08;97192.59;;;14.12;97.91
20987;BME280;10652;50.306;8.570;2023-08-06T16:32:10;97186.81;;;14.07;97.95
20987;BME280;10652;50.306;8.570;2023-08-06T16:36:13;97192.53;;;14.00;97.91
20987;BME280;10652;50.306;8.570;2023-08-06T16:40:15;97199.75;;;13.98;98.46
20987;BME280;10652;50.306;8.570;2023-08-06T16:44:18;97191.84;;;14.10;98.82
20987;BME280;10652;50.306;8.570;2023-08-06T16:48:20;97187.66;;;14.07;98.17
20987;BME280;10652;50.306;8.570;2023-08-06T16:52:29;97201.22;;;14.14;98.52
20987;BME280;10652;50.306;8.570;2023-08-06T16:56:31;97200.53;;;14.12;98.11
20987;BME280;10652;50.306;8.570;2023-08-06T17:00:33;97204.13;;;14.22;98.51
20987;BME280;10652;50.306;8.570;2023-08-06T17:04:35;97223.47;;;14.22;98.38
20987;BME280;10652;50.306;8.570;2023-08-06T17:08:37;97210.59;;;14.07;99.12
20987;BME280;10652;50.306;8.570;2023-08-06T17:12:40;97227.38;;;14.06;100.00
20987;BME280;10652;50.306;8.570;2023-08-06T17:16:43;97230.47;;;13.99;99.78
20987;BME280;10652;50.306;8.570;2023-08-06T17:20:46;97229.63;;;13.99;99.92
20987;BME280;10652;50.306;8.570;2023-08-06T17:24:48;97227.09;;;13.97;100.00
20987;BME280;10652;50.306;8.570;2023-08-06T17:28:51;97235.13;;;13.96;100.00
20987;BME280;10652;50.306;8.570;2023-08-06T17:32:53;97236.56;;;13.89;100.00
20987;BME280;10652;50.306;8.570;2023-08-06T17:36:55;97242.28;;;13.83;100.00
20987;BME280;10652;50.306;8.570;2023-08-06T17:40:57;97249.06;;;13.74;100.00
20987;BME280;10652;50.306;8.570;2023-08-06T17:45:01;97257.88;;;13.62;100.00
20987;BME280;10652;50.306;8.570;2023-08-06T17:49:04;97264.44;;;13.56;100.00
20987;BME280;10652;50.306;8.570;2023-08-06T17:53:06;97261.28;;;13.51;100.00
20987;BME280;10652;50.306;8.570;2023-08-06T17:57:08;97266.84;;;13.47;100.00
20987;BME280;10652;50.306;8.570;2023-08-06T18:01:10;97257.88;;;13.37;100.00
20987;BME280;10652;50.306;8.570;2023-08-06T18:05:13;97264.34;;;13.33;100.00
20987;BME280;10652;50.306;8.570;2023-08-06T18:09:17;97273.50;;;13.27;100.00
20987;BME280;10652;50.306;8.570;2023-08-06T18:13:19;97272.38;;;13.19;100.00
20987;BME280;10652;50.306;8.570;2023-08-06T18:17:21;97279.88;;;13.12;100.00
20987;BME280;10652;50.306;8.570;2023-08-06T18:21:23;97283.38;;;13.12;100.00
20987;BME280;10652;50.306;8.570;2023-08-06T18:25:25;97285.88;;;13.01;100.00
20987;BME280;10652;50.306;8.570;2023-08-06T18:29:27;97274.50;;;13.01;100.00
20987;BME280;10652;50.306;8.570;2023-08-06T18:33:30;97282.81;;;12.95;100.00
20987;BME280;10652;50.306;8.570;2023-08-06T18:37:32;97281.47;;;12.89;100.00
20987;BME280;10652;50.306;8.570;2023-08-06T18:41:36;97289.16;;;12.80;100.00
20987;BME280;10652;50.306;8.570;2023-08-06T18:45:38;97294.19;;;12.70;100.00
20987;BME280;10652;50.306;8.570;2023-08-06T18:49:41;97285.97;;;12.62;100.00
20987;BME280;10652;50.306;8.570;2023-08-06T18:53:43;97294.41;;;12.67;100.00
20987;BME280;10652;50.306;8.570;2023-08-06T18:57:45;97307.06;;;12.62;100.00
20987;BME280;10652;50.306;8.570;2023-08-06T19:01:47;97309.94;;;12.45;100.00
20987;BME280;10652;50.306;8.570;2023-08-06T19:05:49;97300.00;;;12.36;100.00
20987;BME280;10652;50.306;8.570;2023-08-06T19:09:52;97292.28;;;12.33;100.00
20987;BME280;10652;50.306;8.570;2023-08-06T19:13:54;97294.00;;;12.34;100.00
20987;BME280;10652;50.306;8.570;2023-08-06T19:17:56;97317.34;;;12.40;100.00
20987;BME280;10652;50.306;8.570;2023-08-06T19:21:59;97325.25;;;12.40;100.00
20987;BME280;10652;50.306;8.570;2023-08-06T19:26:01;97318.44;;;12.36;100.00
20987;BME280;10652;50.306;8.570;2023-08-06T19:30:04;97316.84;;;12.33;100.00
20987;BME280;10652;50.306;8.570;2023-08-06T19:34:06;97315.06;;;12.34;100.00
20987;BME280;10652;50.306;8.570;2023-08-06T19:38:08;97319.22;;;12.38;100.00
20987;BME280;10652;50.306;8.570;2023-08-06T19:42:11;97315.91;;;12.61;100.00
20987;BME280;10652;50.306;8.570;2023-08-06T19:46:13;97311.03;;;12.55;100.00
20987;BME280;10652;50.306;8.570;2023-08-06T19:50:15;97317.66;;;12.48;100.00
20987;BME280;10652;50.306;8.570;2023-08-06T19:54:17;97318.69;;;12.45;100.00
20987;BME280;10652;50.306;8.570;2023-08-06T19:58:20;97311.31;;;12.38;100.00
20987;BME280;10652;50.306;8.570;2023-08-06T20:02:22;97318.00;;;12.29;100.00
20987;BME280;10652;50.306;8.570;2023-08-06T20:06:24;97312.47;;;12.19;100.00
20987;BME280;10652;50.306;8.570;2023-08-06T20:10:31;97311.63;;;12.19;100.00
20987;BME280;10652;50.306;8.570;2023-08-06T20:14:33;97321.31;;;12.18;100.00
20987;BME280;10652;50.306;8.570;2023-08-06T20:18:35;97317.97;;;12.16;100.00
20987;BME280;10652;50.306;8.570;2023-08-06T20:22:38;97328.66;;;12.13;100.00
20987;BME280;10652;50.306;8.570;2023-08-06T20:26:40;97332.06;;;12.15;100.00
20987;BME280;10652;50.306;8.570;2023-08-06T20:30:43;97328.50;;;12.16;100.00
20987;BME280;10652;50.306;8.570;2023-08-06T20:34:45;97339.03;;;12.16;100.00
20987;BME280;10652;50.306;8.570;2023-08-06T20:38:50;97333.75;;;12.16;100.00
20987;BME280;10652;50.306;8.570;2023-08-06T20:42:52;97338.19;;;12.16;100.00
20987;BME280;10652;50.306;8.570;2023-08-06T20:46:56;97337.13;;;12.18;100.00
20987;BME280;10652;50.306;8.570;2023-08-06T20:50:59;97341.53;;;12.18;100.00
20987;BME280;10652;50.306;8.570;2023-08-06T20:55:01;97348.06;;;12.12;100.00
20987;BME280;10652;50.306;8.570;2023-08-06T20:59:03;97347.09;;;12.13;100.00
20987;BME280;10652;50.306;8.570;2023-08-06T21:03:06;97358.03;;;12.07;100.00
20987;BME280;10652;50.306;8.570;2023-08-06T21:07:08;97368.88;;;12.03;100.00
20987;BME280;10652;50.306;8.570;2023-08-06T21:11:10;97357.88;;;11.96;100.00
20987;BME280;10652;50.306;8.570;2023-08-06T21:15:17;97347.53;;;11.93;100.00
20987;BME280;10652;50.306;8.570;2023-08-06T21:19:19;97359.09;;;11.91;100.00
20987;BME280;10652;50.306;8.570;2023-08-06T21:23:22;97354.25;;;11.85;100.00
20987;BME280;10652;50.306;8.570;2023-08-06T21:27:25;97364.00;;;11.82;100.00
20987;BME280;10652;50.306;8.570;2023-08-06T21:31:27;97359.97;;;11.77;100.00